Time;durP1;ratioP1;P1;durP2;ratioP2;P2;SDS_P1;SDS_P2;PMS_P1;PMS_P2;Temp;Humidity;BMP_temperature;BMP_pressure;BME280_temperature;BME280_humidity;BME280_pressure;Samples;Min_cycle;Max_cycle;Signal;HPM_P1;HPM_P2
2022/12/02 00:01:02;;;;;;;;;;;6.20;99.90;;;;;;2621688;47;19995;-66
2022/12/02 00:03:33;;;;;;;;;;;6.00;99.90;;;;;;2620248;54;19954;-67
2022/12/02 00:06:06;;;;;;;;;;;6.00;99.90;;;;;;2617123;54;19946;-68
2022/12/02 00:08:36;;;;;;;;;;;6.00;99.90;;;;;;2617584;47;19954;-67
2022/12/02 00:11:08;;;;;;;;;;;6.00;99.90;;;;;;2618466;51;19950;-67
2022/12/02 00:13:41;;;;;;;;;;;6.00;99.90;;;;;;2618821;54;19958;-67
2022/12/02 00:16:13;;;;;;;;;;;6.00;99.90;;;;;;2618772;47;20065;-67
2022/12/02 00:18:42;;;;;;;;;;;6.00;99.90;;;;;;2621790;47;20028;-66
2022/12/02 00:21:14;;;;;;;;;;;6.00;99.90;;;;;;2623606;46;19947;-66
2022/12/02 00:23:44;;;;;;;;;;;6.00;99.90;;;;;;2619419;50;19950;-67
2022/12/02 00:26:13;;;;;;;;;;;5.90;99.90;;;;;;2619230;47;20104;-67
2022/12/02 00:28:43;;;;;;;;;;;6.00;99.90;;;;;;2619436;54;19987;-66
2022/12/02 00:31:12;;;;;;;;;;;5.90;99.90;;;;;;2619414;54;19950;-67
2022/12/02 00:33:42;;;;;;;;;;;5.90;99.90;;;;;;2619322;54;20034;-66
2022/12/02 00:36:14;;;;;;;;;;;5.80;99.90;;;;;;2618447;54;19957;-66
2022/12/02 00:38:44;;;;;;;;;;;5.80;99.90;;;;;;2622392;46;19957;-67
2022/12/02 00:41:13;;;;;;;;;;;5.80;99.90;;;;;;2621219;51;20476;-67
2022/12/02 00:46:33;;;;;;;;;;;5.80;99.90;;;;;;2619210;47;19950;-67
2022/12/02 00:49:07;;;;;;;;;;;5.80;99.90;;;;;;2619808;54;19968;-67
2022/12/02 00:51:40;;;;;;;;;;;5.80;99.90;;;;;;2619402;47;19992;-67
2022/12/02 00:54:10;;;;;;;;;;;5.80;99.90;;;;;;2620173;46;19950;-66
2022/12/02 00:56:40;;;;;;;;;;;5.80;99.90;;;;;;2620133;47;20006;-66
2022/12/02 00:59:09;;;;;;;;;;;5.80;99.90;;;;;;2619848;39;20745;-67
2022/12/02 01:01:43;;;;;;;;;;;5.80;99.90;;;;;;2619672;47;19946;-67
2022/12/02 01:04:13;;;;;;;;;;;5.80;99.90;;;;;;2620115;54;19951;-67
2022/12/02 01:06:45;;;;;;;;;;;5.80;99.90;;;;;;2619003;47;19950;-67
2022/12/02 01:09:15;;;;;;;;;;;5.80;99.90;;;;;;2618518;51;20462;-67
2022/12/02 01:11:44;;;;;;;;;;;5.80;99.90;;;;;;2619289;39;20705;-67
2022/12/02 01:14:14;;;;;;;;;;;5.80;99.90;;;;;;2619137;47;20004;-67
2022/12/02 01:16:43;;;;;;;;;;;5.80;99.90;;;;;;2618488;47;19999;-67
2022/12/02 01:19:13;;;;;;;;;;;5.80;99.90;;;;;;2618509;54;19950;-67
2022/12/02 01:21:42;;;;;;;;;;;5.80;99.90;;;;;;2619480;39;20744;-66
2022/12/02 01:24:14;;;;;;;;;;;5.90;99.90;;;;;;2618715;47;19991;-66
2022/12/02 01:26:44;;;;;;;;;;;5.90;99.90;;;;;;2620167;47;20018;-67
2022/12/02 01:29:14;;;;;;;;;;;5.90;99.90;;;;;;2623308;47;19947;-71
2022/12/02 01:31:43;;;;;;;;;;;5.90;99.90;;;;;;2624088;54;19954;-67
2022/12/02 01:34:13;;;;;;;;;;;6.00;99.90;;;;;;2620624;39;20410;-67
2022/12/02 01:36:42;;;;;;;;;;;6.00;99.90;;;;;;2618790;47;19950;-67
2022/12/02 01:39:15;;;;;;;;;;;6.00;99.90;;;;;;2620442;31;20424;-67
2022/12/02 01:41:45;;;;;;;;;;;6.00;99.90;;;;;;2619770;54;20515;-66
2022/12/02 01:44:14;;;;;;;;;;;6.00;99.90;;;;;;2618959;54;19947;-66
2022/12/02 01:46:44;;;;;;;;;;;6.00;99.90;;;;;;2621632;47;19946;-68
2022/12/02 01:49:13;;;;;;;;;;;6.00;99.90;;;;;;2622640;46;19951;-66
2022/12/02 01:51:43;;;;;;;;;;;6.00;99.90;;;;;;2619188;47;19946;-67
2022/12/02 01:54:15;;;;;;;;;;;6.10;99.90;;;;;;2619136;47;19954;-67
2022/12/02 01:56:45;;;;;;;;;;;6.00;99.90;;;;;;2619080;39;20432;-67
2022/12/02 01:59:16;;;;;;;;;;;6.10;99.90;;;;;;2618257;47;19988;-67
2022/12/02 02:01:45;;;;;;;;;;;6.10;99.90;;;;;;2617845;54;19958;-67
2022/12/02 02:04:15;;;;;;;;;;;6.10;99.90;;;;;;2619168;47;19958;-66
2022/12/02 02:06:45;;;;;;;;;;;6.10;99.90;;;;;;2618026;47;19992;-67
2022/12/02 02:09:17;;;;;;;;;;;6.10;99.90;;;;;;2619005;54;19992;-67
2022/12/02 02:11:47;;;;;;;;;;;6.10;99.90;;;;;;2620208;46;19938;-67
2022/12/02 02:14:16;;;;;;;;;;;6.10;99.90;;;;;;2619014;47;19953;-67
2022/12/02 02:16:46;;;;;;;;;;;6.20;99.90;;;;;;2618928;47;19999;-67
2022/12/02 02:19:16;;;;;;;;;;;6.10;99.90;;;;;;2622548;54;19995;-70
2022/12/02 02:21:48;;;;;;;;;;;6.20;99.90;;;;;;2623221;47;19939;-67
2022/12/02 02:24:20;;;;;;;;;;;6.20;99.90;;;;;;2619646;47;19984;-67
2022/12/02 02:26:49;;;;;;;;;;;6.20;99.90;;;;;;2623991;47;19957;-68
2022/12/02 02:29:19;;;;;;;;;;;6.20;99.90;;;;;;2623698;39;20362;-69
2022/12/02 02:31:48;;;;;;;;;;;6.20;99.90;;;;;;2620951;54;19946;-67
2022/12/02 02:34:18;;;;;;;;;;;6.20;99.90;;;;;;2618102;47;19950;-66
2022/12/02 02:36:48;;;;;;;;;;;6.20;99.90;;;;;;2621131;54;19992;-67
2022/12/02 02:39:20;;;;;;;;;;;6.20;99.90;;;;;;2623673;54;19938;-67
2022/12/02 02:41:50;;;;;;;;;;;6.20;99.90;;;;;;2618650;46;19939;-67
2022/12/02 02:44:19;;;;;;;;;;;6.10;99.90;;;;;;2619089;47;19973;-66
2022/12/02 02:46:54;;;;;;;;;;;6.20;99.90;;;;;;2617853;48;20065;-66
2022/12/02 02:49:24;;;;;;;;;;;6.20;99.90;;;;;;2619484;46;19950;-66
2022/12/02 02:51:53;;;;;;;;;;;6.50;99.90;;;;;;2620287;39;20417;-67
2022/12/02 02:54:25;;;;;;;;;;;6.20;99.90;;;;;;2618607;54;20000;-67
2022/12/02 02:56:55;;;;;;;;;;;6.20;99.90;;;;;;2618144;47;19955;-67
2022/12/02 02:59:24;;;;;;;;;;;6.20;99.90;;;;;;2618590;51;19996;-67
2022/12/02 03:01:55;;;;;;;;;;;6.20;99.90;;;;;;2617927;54;19954;-67
2022/12/02 03:04:26;;;;;;;;;;;6.20;99.90;;;;;;2619089;47;19939;-67
2022/12/02 03:06:56;;;;;;;;;;;6.20;99.90;;;;;;2619418;54;19953;-68
2022/12/02 03:09:28;;;;;;;;;;;6.10;99.90;;;;;;2619878;54;20069;-67
2022/12/02 03:11:58;;;;;;;;;;;6.20;99.90;;;;;;2619627;54;19946;-67
2022/12/02 03:14:28;;;;;;;;;;;6.10;99.90;;;;;;2619302;54;20016;-68
2022/12/02 03:16:59;;;;;;;;;;;6.10;99.90;;;;;;2620143;39;20391;-67
2022/12/02 03:19:29;;;;;;;;;;;6.10;99.90;;;;;;2619082;47;19947;-67
2022/12/02 03:21:59;;;;;;;;;;;6.10;99.90;;;;;;2620182;54;19988;-66
2022/12/02 03:24:33;;;;;;;;;;;6.20;99.90;;;;;;2619693;54;19946;-66
2022/12/02 03:27:02;;;;;;;;;;;6.20;99.90;;;;;;2619542;54;20534;-66
2022/12/02 03:29:32;;;;;;;;;;;6.20;99.90;;;;;;2617842;47;19977;-67
2022/12/02 03:32:02;;;;;;;;;;;6.10;99.90;;;;;;2618377;47;19946;-69
2022/12/02 03:34:31;;;;;;;;;;;6.20;99.90;;;;;;2617565;47;19957;-66
2022/12/02 03:37:01;;;;;;;;;;;6.10;99.90;;;;;;2617818;51;19954;-67
2022/12/02 03:39:33;;;;;;;;;;;6.00;99.90;;;;;;2618054;47;19977;-66
2022/12/02 03:42:03;;;;;;;;;;;6.00;99.90;;;;;;2619350;54;19950;-67
2022/12/02 03:44:32;;;;;;;;;;;5.90;99.90;;;;;;2618301;47;20006;-67
2022/12/02 03:47:02;;;;;;;;;;;6.00;99.90;;;;;;2623142;54;19946;-68
2022/12/02 03:49:33;;;;;;;;;;;5.90;99.90;;;;;;2621308;47;19946;-67
2022/12/02 03:52:03;;;;;;;;;;;5.90;99.90;;;;;;2618228;47;19969;-66
2022/12/02 03:54:35;;;;;;;;;;;5.90;99.90;;;;;;2618393;47;20460;-68
2022/12/02 03:57:06;;;;;;;;;;;5.90;99.90;;;;;;2616246;51;19947;-68
2022/12/02 03:59:35;;;;;;;;;;;5.80;99.90;;;;;;2616870;54;20444;-68
2022/12/02 04:02:05;;;;;;;;;;;5.80;99.90;;;;;;2618091;54;20011;-68
2022/12/02 04:04:34;;;;;;;;;;;6.00;99.90;;;;;;2617671;39;20402;-67
2022/12/02 04:07:04;;;;;;;;;;;5.80;99.90;;;;;;2618774;39;20382;-66
2022/12/02 04:09:36;;;;;;;;;;;5.70;99.90;;;;;;2617837;47;19939;-66
2022/12/02 04:12:06;;;;;;;;;;;5.70;99.90;;;;;;2618530;47;19965;-67
2022/12/02 04:14:35;;;;;;;;;;;5.70;99.90;;;;;;2618387;54;19980;-67
2022/12/02 04:17:05;;;;;;;;;;;5.70;99.90;;;;;;2617489;47;19950;-66
2022/12/02 04:19:37;;;;;;;;;;;5.70;99.90;;;;;;2621084;47;20042;-66
2022/12/02 04:22:06;;;;;;;;;;;5.70;99.90;;;;;;2618638;39;20078;-67
2022/12/02 04:24:38;;;;;;;;;;;5.60;99.90;;;;;;2618575;47;19981;-66
2022/12/02 04:27:08;;;;;;;;;;;5.70;99.90;;;;;;2617881;51;20026;-65
2022/12/02 04:29:37;;;;;;;;;;;5.70;99.90;;;;;;2618012;54;19954;-67
2022/12/02 04:32:07;;;;;;;;;;;5.70;99.90;;;;;;2618033;47;19995;-66
2022/12/02 04:34:36;;;;;;;;;;;5.70;99.90;;;;;;2617722;50;20004;-67
2022/12/02 04:37:06;;;;;;;;;;;5.70;99.90;;;;;;2617593;52;20456;-67
2022/12/02 04:39:35;;;;;;;;;;;5.70;99.90;;;;;;2617564;51;19996;-67
2022/12/02 04:42:07;;;;;;;;;;;5.80;99.90;;;;;;2621170;47;19951;-66
2022/12/02 04:44:37;;;;;;;;;;;5.80;99.90;;;;;;2618145;39;20465;-67
2022/12/02 04:47:06;;;;;;;;;;;5.70;99.90;;;;;;2619427;52;19938;-66
2022/12/02 04:49:36;;;;;;;;;;;5.70;99.90;;;;;;2621802;47;19984;-67
2022/12/02 04:52:05;;;;;;;;;;;5.70;99.90;;;;;;2618441;47;19996;-66
2022/12/02 04:54:35;;;;;;;;;;;5.70;99.90;;;;;;2620078;54;20672;-68
2022/12/02 04:57:04;;;;;;;;;;;5.70;99.90;;;;;;2622635;47;20032;-67
2022/12/02 04:59:37;;;;;;;;;;;5.60;99.90;;;;;;2622882;54;19954;-68
2022/12/02 05:02:06;;;;;;;;;;;5.60;99.90;;;;;;2624578;54;19942;-67
2022/12/02 05:04:36;;;;;;;;;;;5.60;99.90;;;;;;2620817;54;19950;-67
2022/12/02 05:07:09;;;;;;;;;;;5.60;99.90;;;;;;2618744;47;19954;-68
2022/12/02 05:09:38;;;;;;;;;;;5.70;99.90;;;;;;2618195;47;19996;-66
2022/12/02 05:12:08;;;;;;;;;;;5.60;99.90;;;;;;2619085;47;20004;-67
2022/12/02 05:14:40;;;;;;;;;;;5.70;99.90;;;;;;2618540;48;19978;-66
2022/12/02 05:17:09;;;;;;;;;;;5.70;99.90;;;;;;2618592;54;19947;-67
2022/12/02 05:19:39;;;;;;;;;;;5.70;99.90;;;;;;2618359;54;19958;-67
2022/12/02 05:22:08;;;;;;;;;;;5.70;99.90;;;;;;2618839;47;19987;-67
2022/12/02 05:24:39;;;;;;;;;;;5.70;99.90;;;;;;2618564;47;20000;-67
2022/12/02 05:27:08;;;;;;;;;;;5.70;99.90;;;;;;2618021;47;19950;-66
2022/12/02 05:29:40;;;;;;;;;;;5.80;99.90;;;;;;2618097;54;19958;-67
2022/12/02 05:32:10;;;;;;;;;;;5.70;99.90;;;;;;2618353;54;20483;-68
2022/12/02 05:34:39;;;;;;;;;;;5.70;99.90;;;;;;2619541;47;19962;-67
2022/12/02 05:37:09;;;;;;;;;;;5.70;99.90;;;;;;2618524;47;19955;-68
2022/12/02 05:39:38;;;;;;;;;;;5.60;99.90;;;;;;2617221;47;19950;-67
2022/12/02 05:42:09;;;;;;;;;;;5.60;99.90;;;;;;2618112;47;19996;-69
2022/12/02 05:44:42;;;;;;;;;;;5.60;99.90;;;;;;2617929;54;19974;-67
2022/12/02 05:47:12;;;;;;;;;;;5.60;99.90;;;;;;2618157;47;19942;-67
2022/12/02 05:49:43;;;;;;;;;;;5.60;99.90;;;;;;2620905;47;19954;-67
2022/12/02 05:52:20;;;;;;;;;;;5.60;99.90;;;;;;2618179;47;19985;-66
2022/12/02 05:54:49;;;;;;;;;;;5.60;99.90;;;;;;2620666;54;19950;-67
2022/12/02 05:57:21;;;;;;;;;;;5.60;99.90;;;;;;2618979;54;19950;-67
2022/12/02 06:00:12;;;;;;;;;;;5.50;99.90;;;;;;2618508;47;19954;-67
2022/12/02 06:02:44;;;;;;;;;;;5.60;99.90;;;;;;2617382;47;19950;-67
2022/12/02 06:05:16;;;;;;;;;;;5.60;99.90;;;;;;2615469;47;19954;-67
2022/12/02 06:07:45;;;;;;;;;;;5.60;99.90;;;;;;2615531;39;20044;-65
2022/12/02 06:10:19;;;;;;;;;;;5.70;99.90;;;;;;2614015;51;20572;-68
2022/12/02 06:12:48;;;;;;;;;;;5.70;99.90;;;;;;2617333;47;20001;-65
2022/12/02 06:15:21;;;;;;;;;;;5.70;99.90;;;;;;2620929;51;19950;-66
2022/12/02 06:17:50;;;;;;;;;;;5.70;99.90;;;;;;2623372;54;19957;-67
2022/12/02 06:20:22;;;;;;;;;;;5.70;99.90;;;;;;2618818;54;19995;-67
2022/12/02 06:22:52;;;;;;;;;;;5.60;99.90;;;;;;2618504;54;19946;-66
2022/12/02 06:25:25;;;;;;;;;;;5.70;99.90;;;;;;2618992;51;19950;-66
2022/12/02 06:27:57;;;;;;;;;;;5.80;99.90;;;;;;2619985;47;19946;-66
2022/12/02 06:30:30;;;;;;;;;;;5.80;99.90;;;;;;2619882;54;19951;-66
2022/12/02 06:33:01;;;;;;;;;;;5.80;99.90;;;;;;2618585;47;19957;-67
2022/12/02 06:35:32;;;;;;;;;;;5.80;99.90;;;;;;2617264;47;19962;-68
2022/12/02 06:38:03;;;;;;;;;;;5.80;99.90;;;;;;2619084;47;19954;-68
2022/12/02 06:40:35;;;;;;;;;;;5.80;99.90;;;;;;2615885;47;19984;-67
2022/12/02 06:43:13;;;;;;;;;;;5.70;99.90;;;;;;2614381;46;19996;-66
2022/12/02 06:45:46;;;;;;;;;;;5.70;99.90;;;;;;2614310;47;19995;-67
2022/12/02 06:48:24;;;;;;;;;;;5.80;99.90;;;;;;2615430;46;19951;-67
2022/12/02 06:50:54;;;;;;;;;;;5.70;99.90;;;;;;2617264;47;20011;-67
2022/12/02 06:53:28;;;;;;;;;;;5.70;99.90;;;;;;2616608;54;19954;-67
2022/12/02 06:56:00;;;;;;;;;;;5.70;99.90;;;;;;2617072;47;19986;-67
2022/12/02 06:58:37;;;;;;;;;;;5.80;99.90;;;;;;2618135;47;19954;-67
2022/12/02 07:01:14;;;;;;;;;;;5.80;99.90;;;;;;2618558;39;20434;-67
2022/12/02 07:03:46;;;;;;;;;;;5.70;99.90;;;;;;2618647;46;19947;-67
